sensor_id;sensor_type;location;lat;lon;timestamp;pressure;altitude;pressure_sealevel;temperature;humidity
27840;BME280;15207;42.182;24.308;2023-01-31T00:00:20;98795.41;;;0.82;87.82
27840;BME280;15207;42.182;24.308;2023-01-31T00:02:45;98796.97;;;0.86;88.12
27840;BME280;15207;42.182;24.308;2023-01-31T00:05:11;98799.81;;;1.01;87.44
27840;BME280;15207;42.182;24.308;2023-01-31T00:07:36;98791.16;;;0.97;87.04
27840;BME280;15207;42.182;24.308;2023-01-31T00:10:03;98798.09;;;1.00;86.93
27840;BME280;15207;42.182;24.308;2023-01-31T00:12:28;98790.41;;;0.95;87.42
27840;BME280;15207;42.182;24.308;2023-01-31T00:14:54;98790.41;;;0.95;88.07
27840;BME280;15207;42.182;24.308;2023-01-31T00:17:19;98792.44;;;1.08;87.04
27840;BME280;15207;42.182;24.308;2023-01-31T00:19:45;98784.44;;;0.91;87.25
27840;BME280;15207;42.182;24.308;2023-01-31T00:22:10;98786.47;;;1.04;88.30
27840;BME280;15207;42.182;24.308;2023-01-31T00:24:36;98786.88;;;1.14;87.68
27840;BME280;15207;42.182;24.308;2023-01-31T00:27:02;98783.09;;;1.19;87.28
27840;BME280;15207;42.182;24.308;2023-01-31T00:29:27;98777.59;;;1.24;86.32
27840;BME280;15207;42.182;24.308;2023-01-31T00:31:53;98789.72;;;1.28;85.66
27840;BME280;15207;42.182;24.308;2023-01-31T00:34:18;98790.72;;;1.43;84.76
27840;BME280;15207;42.182;24.308;2023-01-31T00:36:44;98791.91;;;1.01;86.22
27840;BME280;15207;42.182;24.308;2023-01-31T00:39:09;98793.75;;;0.99;86.94
27840;BME280;15207;42.182;24.308;2023-01-31T00:41:36;98798.09;;;1.00;86.43
27840;BME280;15207;42.182;24.308;2023-01-31T00:44:02;98796.81;;;1.09;85.84
27840;BME280;15207;42.182;24.308;2023-01-31T00:46:28;98799.84;;;1.18;84.99
27840;BME280;15207;42.182;24.308;2023-01-31T00:48:54;98815.59;;;1.20;85.12
27840;BME280;15207;42.182;24.308;2023-01-31T00:51:21;98805.88;;;1.40;86.19
27840;BME280;15207;42.182;24.308;2023-01-31T00:53:47;98799.28;;;1.49;84.79
27840;BME280;15207;42.182;24.308;2023-01-31T00:56:17;98798.34;;;1.50;84.89
27840;BME280;15207;42.182;24.308;2023-01-31T00:58:43;98809.13;;;1.63;84.61
27840;BME280;15207;42.182;24.308;2023-01-31T01:03:39;98803.97;;;1.61;83.78
27840;BME280;15207;42.182;24.308;2023-01-31T01:06:05;98802.22;;;1.60;84.01
27840;BME280;15207;42.182;24.308;2023-01-31T01:08:32;98795.16;;;1.61;84.21
27840;BME280;15207;42.182;24.308;2023-01-31T01:11:28;98803.47;;;1.70;84.54
27840;BME280;15207;42.182;24.308;2023-01-31T01:13:54;98797.97;;;1.75;83.80
27840;BME280;15207;42.182;24.308;2023-01-31T01:16:23;98795.25;;;1.77;83.22
27840;BME280;15207;42.182;24.308;2023-01-31T01:18:49;98790.19;;;1.72;83.48
27840;BME280;15207;42.182;24.308;2023-01-31T01:21:16;98793.91;;;1.68;83.63
27840;BME280;15207;42.182;24.308;2023-01-31T01:23:43;98793.16;;;1.66;83.89
27840;BME280;15207;42.182;24.308;2023-01-31T01:26:20;98789.03;;;1.78;82.17
27840;BME280;15207;42.182;24.308;2023-01-31T01:28:46;98773.00;;;1.98;80.50
27840;BME280;15207;42.182;24.308;2023-01-31T01:31:13;98770.22;;;2.02;79.79
27840;BME280;15207;42.182;24.308;2023-01-31T01:33:40;98763.66;;;2.09;79.03
27840;BME280;15207;42.182;24.308;2023-01-31T01:36:09;98765.75;;;2.20;78.80
27840;BME280;15207;42.182;24.308;2023-01-31T01:38:42;98746.91;;;2.26;77.90
27840;BME280;15207;42.182;24.308;2023-01-31T01:41:10;98748.75;;;2.42;77.16
27840;BME280;15207;42.182;24.308;2023-01-31T01:43:46;98734.50;;;2.44;77.01
27840;BME280;15207;42.182;24.308;2023-01-31T01:46:19;98729.72;;;2.51;78.10
27840;BME280;15207;42.182;24.308;2023-01-31T01:48:48;98720.53;;;2.42;79.09
27840;BME280;15207;42.182;24.308;2023-01-31T01:51:15;98723.25;;;2.41;78.45
27840;BME280;15207;42.182;24.308;2023-01-31T01:53:47;98725.53;;;2.47;78.52
27840;BME280;15207;42.182;24.308;2023-01-31T01:56:22;98714.03;;;2.48;78.26
27840;BME280;15207;42.182;24.308;2023-01-31T02:01:37;98709.75;;;2.45;77.25
27840;BME280;15207;42.182;24.308;2023-01-31T02:04:09;98714.38;;;2.58;77.35
27840;BME280;15207;42.182;24.308;2023-01-31T02:06:37;98714.19;;;2.61;77.07
27840;BME280;15207;42.182;24.308;2023-01-31T02:09:05;98705.44;;;2.76;76.71
27840;BME280;15207;42.182;24.308;2023-01-31T02:11:33;98705.78;;;2.54;76.62
27840;BME280;15207;42.182;24.308;2023-01-31T02:14:05;98702.94;;;2.73;76.16
27840;BME280;15207;42.182;24.308;2023-01-31T02:16:32;98702.09;;;2.73;74.19
27840;BME280;15207;42.182;24.308;2023-01-31T02:18:58;98705.25;;;2.47;75.21
27840;BME280;15207;42.182;24.308;2023-01-31T02:27:22;98699.44;;;2.24;80.43
27840;BME280;15207;42.182;24.308;2023-01-31T02:38:00;98704.72;;;2.08;83.80
27840;BME280;15207;42.182;24.308;2023-01-31T02:40:36;98707.84;;;2.15;81.05
27840;BME280;15207;42.182;24.308;2023-01-31T02:45:57;98697.56;;;2.43;79.39
27840;BME280;15207;42.182;24.308;2023-01-31T02:48:39;98720.69;;;2.39;78.78
27840;BME280;15207;42.182;24.308;2023-01-31T02:51:24;98712.31;;;2.47;78.99
27840;BME280;15207;42.182;24.308;2023-01-31T02:54:07;98726.34;;;2.49;79.15
27840;BME280;15207;42.182;24.308;2023-01-31T02:56:36;98720.34;;;2.61;78.17
27840;BME280;15207;42.182;24.308;2023-01-31T02:59:07;98718.72;;;2.43;78.77
27840;BME280;15207;42.182;24.308;2023-01-31T03:01:39;98716.69;;;2.32;80.53
27840;BME280;15207;42.182;24.308;2023-01-31T03:04:08;98720.53;;;2.42;79.76
27840;BME280;15207;42.182;24.308;2023-01-31T03:09:05;98721.81;;;2.51;79.42
27840;BME280;15207;42.182;24.308;2023-01-31T03:14:41;98729.13;;;2.78;75.42
27840;BME280;15207;42.182;24.308;2023-01-31T03:20:20;98721.31;;;3.23;69.72
27840;BME280;15207;42.182;24.308;2023-01-31T03:23:08;98710.31;;;3.46;69.71
27840;BME280;15207;42.182;24.308;2023-01-31T03:25:35;98714.59;;;3.48;69.26
27840;BME280;15207;42.182;24.308;2023-01-31T03:28:06;98720.13;;;3.43;69.00
27840;BME280;15207;42.182;24.308;2023-01-31T03:30:38;98715.13;;;3.39;68.07
27840;BME280;15207;42.182;24.308;2023-01-31T03:33:24;98719.78;;;3.50;66.99
27840;BME280;15207;42.182;24.308;2023-01-31T03:46:59;98723.81;;;3.41;54.86
27840;BME280;15207;42.182;24.308;2023-01-31T03:49:26;98730.63;;;3.45;54.57
27840;BME280;15207;42.182;24.308;2023-01-31T03:52:03;98727.63;;;3.51;52.75
27840;BME280;15207;42.182;24.308;2023-01-31T03:54:35;98741.72;;;3.52;53.46
27840;BME280;15207;42.182;24.308;2023-01-31T03:57:17;98747.59;;;3.57;53.28
27840;BME280;15207;42.182;24.308;2023-01-31T03:59:46;98748.34;;;3.44;54.00
27840;BME280;15207;42.182;24.308;2023-01-31T04:02:21;98748.91;;;3.50;53.95
27840;BME280;15207;42.182;24.308;2023-01-31T04:04:58;98765.56;;;3.52;55.04
27840;BME280;15207;42.182;24.308;2023-01-31T04:07:27;98767.75;;;3.60;57.04
27840;BME280;15207;42.182;24.308;2023-01-31T04:09:53;98762.66;;;3.56;56.11
27840;BME280;15207;42.182;24.308;2023-01-31T04:12:19;98755.78;;;3.38;55.02
27840;BME280;15207;42.182;24.308;2023-01-31T04:14:45;98771.59;;;3.54;55.50
27840;BME280;15207;42.182;24.308;2023-01-31T04:17:10;98775.84;;;3.42;52.76
27840;BME280;15207;42.182;24.308;2023-01-31T04:19:36;98774.97;;;3.41;54.03
27840;BME280;15207;42.182;24.308;2023-01-31T04:22:01;98777.63;;;3.41;53.35
27840;BME280;15207;42.182;24.308;2023-01-31T04:24:27;98789.84;;;3.44;51.09
27840;BME280;15207;42.182;24.308;2023-01-31T04:26:52;98791.09;;;3.53;50.20
27840;BME280;15207;42.182;24.308;2023-01-31T04:29:18;98778.06;;;3.50;50.00
27840;BME280;15207;42.182;24.308;2023-01-31T04:31:43;98798.69;;;3.59;50.38
27840;BME280;15207;42.182;24.308;2023-01-31T04:34:09;98814.25;;;3.49;50.79
27840;BME280;15207;42.182;24.308;2023-01-31T04:36:34;98807.41;;;3.61;50.32
27840;BME280;15207;42.182;24.308;2023-01-31T04:39:00;98800.41;;;3.60;50.79
27840;BME280;15207;42.182;24.308;2023-01-31T04:41:26;98796.31;;;3.54;51.75
27840;BME280;15207;42.182;24.308;2023-01-31T04:43:51;98814.16;;;3.51;53.10
27840;BME280;15207;42.182;24.308;2023-01-31T04:46:18;98823.91;;;3.50;53.76
27840;BME280;15207;42.182;24.308;2023-01-31T04:48:43;98815.44;;;3.43;54.54
27840;BME280;15207;42.182;24.308;2023-01-31T04:51:09;98826.16;;;3.42;54.91
27840;BME280;15207;42.182;24.308;2023-01-31T04:53:35;98826.03;;;3.43;55.04
27840;BME280;15207;42.182;24.308;2023-01-31T04:56:01;98824.53;;;3.39;55.82
27840;BME280;15207;42.182;24.308;2023-01-31T04:58:26;98811.75;;;3.32;56.07
27840;BME280;15207;42.182;24.308;2023-01-31T05:00:55;98823.84;;;3.36;56.33
27840;BME280;15207;42.182;24.308;2023-01-31T05:03:20;98818.66;;;3.34;56.21
27840;BME280;15207;42.182;24.308;2023-01-31T05:05:49;98825.78;;;3.48;55.66
27840;BME280;15207;42.182;24.308;2023-01-31T05:08:15;98827.41;;;3.51;55.37
27840;BME280;15207;42.182;24.308;2023-01-31T05:10:40;98828.59;;;3.45;55.26
27840;BME280;15207;42.182;24.308;2023-01-31T05:13:08;98841.00;;;3.44;55.54
27840;BME280;15207;42.182;24.308;2023-01-31T05:15:33;98838.16;;;3.48;55.85
27840;BME280;15207;42.182;24.308;2023-01-31T05:17:59;98845.66;;;3.55;55.52
27840;BME280;15207;42.182;24.308;2023-01-31T05:20:36;98846.09;;;3.64;56.31
27840;BME280;15207;42.182;24.308;2023-01-31T05:23:04;98844.63;;;3.58;56.11
27840;BME280;15207;42.182;24.308;2023-01-31T05:25:29;98848.38;;;3.70;56.11
27840;BME280;15207;42.182;24.308;2023-01-31T05:27:55;98854.91;;;3.64;55.52
27840;BME280;15207;42.182;24.308;2023-01-31T05:30:22;98854.63;;;3.69;55.25
27840;BME280;15207;42.182;24.308;2023-01-31T05:32:50;98847.34;;;3.73;55.11
27840;BME280;15207;42.182;24.308;2023-01-31T05:35:16;98855.56;;;3.68;54.37
27840;BME280;15207;42.182;24.308;2023-01-31T05:37:44;98862.41;;;3.72;54.34
27840;BME280;15207;42.182;24.308;2023-01-31T05:40:14;98858.81;;;3.73;53.93
27840;BME280;15207;42.182;24.308;2023-01-31T05:42:40;98857.78;;;3.76;54.45
27840;BME280;15207;42.182;24.308;2023-01-31T05:45:07;98869.13;;;3.78;54.23
27840;BME280;15207;42.182;24.308;2023-01-31T05:47:33;98877.06;;;3.78;54.13
27840;BME280;15207;42.182;24.308;2023-01-31T05:49:59;98871.69;;;3.79;54.44
27840;BME280;15207;42.182;24.308;2023-01-31T05:52:24;98880.22;;;3.84;54.73
27840;BME280;15207;42.182;24.308;2023-01-31T05:54:50;98891.31;;;3.91;54.64
27840;BME280;15207;42.182;24.308;2023-01-31T05:57:16;98881.59;;;3.92;54.92
27840;BME280;15207;42.182;24.308;2023-01-31T05:59:41;98874.91;;;4.01;54.86
27840;BME280;15207;42.182;24.308;2023-01-31T06:02:07;98883.34;;;4.07;54.75
27840;BME280;15207;42.182;24.308;2023-01-31T06:04:36;98897.50;;;4.06;54.39
27840;BME280;15207;42.182;24.308;2023-01-31T06:07:02;98894.88;;;4.06;54.68
27840;BME280;15207;42.182;24.308;2023-01-31T06:09:28;98901.44;;;4.15;54.92
27840;BME280;15207;42.182;24.308;2023-01-31T06:11:53;98895.03;;;4.19;54.56
27840;BME280;15207;42.182;24.308;2023-01-31T06:14:19;98906.28;;;4.23;54.82
27840;BME280;15207;42.182;24.308;2023-01-31T06:16:45;98909.53;;;4.28;55.07
27840;BME280;15207;42.182;24.308;2023-01-31T06:19:11;98915.44;;;4.48;54.93
27840;BME280;15207;42.182;24.308;2023-01-31T06:21:36;98908.88;;;4.54;54.85
27840;BME280;15207;42.182;24.308;2023-01-31T06:24:02;98915.34;;;4.49;55.30
27840;BME280;15207;42.182;24.308;2023-01-31T06:26:28;98907.28;;;4.51;55.37
27840;BME280;15207;42.182;24.308;2023-01-31T06:28:54;98905.16;;;4.42;56.00
27840;BME280;15207;42.182;24.308;2023-01-31T06:31:20;98905.56;;;4.50;56.56
27840;BME280;15207;42.182;24.308;2023-01-31T06:33:45;98915.97;;;4.39;57.07
27840;BME280;15207;42.182;24.308;2023-01-31T06:36:11;98911.75;;;4.50;56.60
27840;BME280;15207;42.182;24.308;2023-01-31T06:38:37;98900.72;;;4.42;57.70
27840;BME280;15207;42.182;24.308;2023-01-31T06:41:02;98908.44;;;4.47;57.22
27840;BME280;15207;42.182;24.308;2023-01-31T06:43:29;98907.56;;;4.46;57.78
27840;BME280;15207;42.182;24.308;2023-01-31T06:45:55;98912.97;;;4.45;57.36
27840;BME280;15207;42.182;24.308;2023-01-31T06:48:20;98913.94;;;4.58;56.71
27840;BME280;15207;42.182;24.308;2023-01-31T06:50:46;98913.34;;;4.53;55.94
27840;BME280;15207;42.182;24.308;2023-01-31T06:53:12;98910.63;;;4.55;56.09
27840;BME280;15207;42.182;24.308;2023-01-31T06:55:38;98910.16;;;4.62;56.03
27840;BME280;15207;42.182;24.308;2023-01-31T06:58:03;98912.13;;;4.59;55.62
27840;BME280;15207;42.182;24.308;2023-01-31T07:00:29;98902.84;;;4.52;55.30
27840;BME280;15207;42.182;24.308;2023-01-31T07:02:55;98908.88;;;4.54;55.63
27840;BME280;15207;42.182;24.308;2023-01-31T07:05:21;98922.84;;;4.57;55.23
27840;BME280;15207;42.182;24.308;2023-01-31T07:07:47;98917.25;;;4.76;55.30
27840;BME280;15207;42.182;24.308;2023-01-31T07:10:14;98918.31;;;4.74;54.67
27840;BME280;15207;42.182;24.308;2023-01-31T07:12:40;98931.38;;;4.62;55.33
27840;BME280;15207;42.182;24.308;2023-01-31T07:15:06;98931.75;;;4.71;55.44
27840;BME280;15207;42.182;24.308;2023-01-31T07:17:32;98928.25;;;4.70;55.41
27840;BME280;15207;42.182;24.308;2023-01-31T07:19:57;98936.09;;;4.72;55.38
27840;BME280;15207;42.182;24.308;2023-01-31T07:22:23;98927.59;;;4.81;55.69
27840;BME280;15207;42.182;24.308;2023-01-31T07:24:49;98933.47;;;4.86;54.95
27840;BME280;15207;42.182;24.308;2023-01-31T07:27:15;98934.03;;;4.77;55.35
27840;BME280;15207;42.182;24.308;2023-01-31T07:29:41;98937.91;;;4.71;55.05
27840;BME280;15207;42.182;24.308;2023-01-31T07:32:10;98942.66;;;4.81;54.84
27840;BME280;15207;42.182;24.308;2023-01-31T07:34:36;98929.66;;;4.76;55.32
27840;BME280;15207;42.182;24.308;2023-01-31T07:37:03;98941.41;;;4.72;55.39
27840;BME280;15207;42.182;24.308;2023-01-31T07:39:29;98936.69;;;4.77;55.00
27840;BME280;15207;42.182;24.308;2023-01-31T07:41:55;98937.81;;;4.73;55.45
27840;BME280;15207;42.182;24.308;2023-01-31T07:44:21;98926.19;;;4.75;54.90
27840;BME280;15207;42.182;24.308;2023-01-31T07:46:47;98929.31;;;4.82;54.48
27840;BME280;15207;42.182;24.308;2023-01-31T07:49:12;98921.16;;;4.85;53.06
27840;BME280;15207;42.182;24.308;2023-01-31T07:51:38;98919.25;;;5.02;52.30
27840;BME280;15207;42.182;24.308;2023-01-31T07:54:06;98923.22;;;4.95;51.91
27840;BME280;15207;42.182;24.308;2023-01-31T07:56:32;98920.97;;;5.03;51.82
27840;BME280;15207;42.182;24.308;2023-01-31T07:58:58;98926.53;;;5.13;52.34
27840;BME280;15207;42.182;24.308;2023-01-31T08:01:25;98925.41;;;5.17;51.19
27840;BME280;15207;42.182;24.308;2023-01-31T08:04:12;98928.53;;;5.24;51.40
27840;BME280;15207;42.182;24.308;2023-01-31T08:06:38;98933.44;;;5.30;51.19
27840;BME280;15207;42.182;24.308;2023-01-31T08:09:05;98936.81;;;5.47;51.12
27840;BME280;15207;42.182;24.308;2023-01-31T08:11:31;98922.72;;;5.46;51.03
27840;BME280;15207;42.182;24.308;2023-01-31T08:13:56;98933.59;;;5.56;51.46
27840;BME280;15207;42.182;24.308;2023-01-31T08:16:23;98928.56;;;5.66;50.83
27840;BME280;15207;42.182;24.308;2023-01-31T08:18:49;98936.22;;;5.71;50.86
27840;BME280;15207;42.182;24.308;2023-01-31T08:21:15;98936.91;;;5.87;50.74
27840;BME280;15207;42.182;24.308;2023-01-31T08:23:42;98931.66;;;6.00;50.21
27840;BME280;15207;42.182;24.308;2023-01-31T08:26:12;98930.50;;;6.04;49.52
27840;BME280;15207;42.182;24.308;2023-01-31T08:28:38;98929.81;;;6.15;49.77
27840;BME280;15207;42.182;24.308;2023-01-31T08:31:04;98936.53;;;6.21;49.74
27840;BME280;15207;42.182;24.308;2023-01-31T08:33:31;98943.06;;;6.43;50.07
27840;BME280;15207;42.182;24.308;2023-01-31T08:35:56;98945.97;;;6.53;49.85
27840;BME280;15207;42.182;24.308;2023-01-31T08:38:22;98943.63;;;6.74;48.22
27840;BME280;15207;42.182;24.308;2023-01-31T08:40:48;98951.94;;;6.69;48.78
27840;BME280;15207;42.182;24.308;2023-01-31T08:43:14;98944.50;;;6.87;48.74
27840;BME280;15207;42.182;24.308;2023-01-31T08:45:40;98937.56;;;6.98;47.94
27840;BME280;15207;42.182;24.308;2023-01-31T08:48:06;98935.53;;;7.01;47.39
27840;BME280;15207;42.182;24.308;2023-01-31T08:50:33;98938.72;;;7.07;45.44
27840;BME280;15207;42.182;24.308;2023-01-31T08:53:01;98941.81;;;7.00;45.69
27840;BME280;15207;42.182;24.308;2023-01-31T08:55:28;98941.28;;;7.08;45.95
27840;BME280;15207;42.182;24.308;2023-01-31T08:57:53;98939.25;;;7.12;45.78
27840;BME280;15207;42.182;24.308;2023-01-31T09:00:20;98942.41;;;7.30;45.93
27840;BME280;15207;42.182;24.308;2023-01-31T09:02:57;98934.03;;;7.61;46.41
27840;BME280;15207;42.182;24.308;2023-01-31T09:05:25;98938.59;;;7.96;45.06
27840;BME280;15207;42.182;24.308;2023-01-31T09:07:51;98936.94;;;8.31;43.80
27840;BME280;15207;42.182;24.308;2023-01-31T09:10:18;98935.63;;;8.48;43.88
27840;BME280;15207;42.182;24.308;2023-01-31T09:12:44;98938.38;;;8.59;42.71
27840;BME280;15207;42.182;24.308;2023-01-31T09:15:10;98933.44;;;8.89;42.46
27840;BME280;15207;42.182;24.308;2023-01-31T09:17:37;98934.78;;;9.18;42.69
27840;BME280;15207;42.182;24.308;2023-01-31T09:20:03;98933.34;;;9.36;41.24
27840;BME280;15207;42.182;24.308;2023-01-31T09:22:31;98936.03;;;9.25;42.06
27840;BME280;15207;42.182;24.308;2023-01-31T09:24:59;98932.13;;;9.06;42.22
27840;BME280;15207;42.182;24.308;2023-01-31T09:27:26;98923.47;;;8.80;42.43
27840;BME280;15207;42.182;24.308;2023-01-31T09:29:52;98929.53;;;8.34;41.30
27840;BME280;15207;42.182;24.308;2023-01-31T09:32:19;98925.31;;;8.43;42.41
27840;BME280;15207;42.182;24.308;2023-01-31T09:34:46;98916.00;;;8.49;42.88
27840;BME280;15207;42.182;24.308;2023-01-31T09:37:16;98909.41;;;8.78;42.69
27840;BME280;15207;42.182;24.308;2023-01-31T09:39:41;98911.97;;;8.79;42.43
27840;BME280;15207;42.182;24.308;2023-01-31T09:42:16;98905.97;;;8.64;43.38
27840;BME280;15207;42.182;24.308;2023-01-31T09:44:44;98903.59;;;8.48;43.43
27840;BME280;15207;42.182;24.308;2023-01-31T09:47:21;98904.56;;;8.47;42.41
27840;BME280;15207;42.182;24.308;2023-01-31T09:52:27;98889.47;;;8.59;42.69
27840;BME280;15207;42.182;24.308;2023-01-31T09:54:55;98878.31;;;8.65;43.28
27840;BME280;15207;42.182;24.308;2023-01-31T10:11:17;98861.47;;;8.99;41.92
27840;BME280;15207;42.182;24.308;2023-01-31T10:13:54;98853.56;;;8.86;41.38
27840;BME280;15207;42.182;24.308;2023-01-31T10:18:58;98855.16;;;8.89;41.96
27840;BME280;15207;42.182;24.308;2023-01-31T10:21:37;98851.75;;;9.09;43.57
27840;BME280;15207;42.182;24.308;2023-01-31T10:24:15;98862.28;;;9.34;42.88
27840;BME280;15207;42.182;24.308;2023-01-31T10:26:43;98846.72;;;9.39;40.98
27840;BME280;15207;42.182;24.308;2023-01-31T10:31:58;98844.09;;;8.93;41.75
27840;BME280;15207;42.182;24.308;2023-01-31T10:34:26;98860.09;;;8.70;42.59
27840;BME280;15207;42.182;24.308;2023-01-31T10:37:47;98849.31;;;8.60;42.42
27840;BME280;15207;42.182;24.308;2023-01-31T10:40:16;98836.56;;;8.64;43.36
27840;BME280;15207;42.182;24.308;2023-01-31T10:42:52;98842.00;;;8.51;42.83
27840;BME280;15207;42.182;24.308;2023-01-31T10:45:21;98831.91;;;8.43;43.18
27840;BME280;15207;42.182;24.308;2023-01-31T10:47:52;98836.53;;;8.41;42.67
27840;BME280;15207;42.182;24.308;2023-01-31T10:50:37;98826.47;;;8.33;42.75
27840;BME280;15207;42.182;24.308;2023-01-31T10:56:16;98823.31;;;8.40;43.43
27840;BME280;15207;42.182;24.308;2023-01-31T10:58:46;98832.72;;;8.21;43.11
27840;BME280;15207;42.182;24.308;2023-01-31T11:01:12;98814.50;;;8.03;43.17
27840;BME280;15207;42.182;24.308;2023-01-31T11:03:47;98835.41;;;7.85;43.86
27840;BME280;15207;42.182;24.308;2023-01-31T11:06:15;98821.69;;;7.78;43.65
27840;BME280;15207;42.182;24.308;2023-01-31T11:08:53;98821.03;;;7.63;43.69
27840;BME280;15207;42.182;24.308;2023-01-31T11:11:23;98827.44;;;7.61;43.88
27840;BME280;15207;42.182;24.308;2023-01-31T11:14:05;98811.53;;;7.59;43.77
27840;BME280;15207;42.182;24.308;2023-01-31T11:16:33;98820.63;;;7.57;43.77
27840;BME280;15207;42.182;24.308;2023-01-31T11:19:02;98828.34;;;7.73;44.47
27840;BME280;15207;42.182;24.308;2023-01-31T11:21:33;98822.22;;;7.59;43.98
27840;BME280;15207;42.182;24.308;2023-01-31T11:24:06;98828.16;;;7.63;45.04
27840;BME280;15207;42.182;24.308;2023-01-31T11:26:40;98826.91;;;7.56;44.60
27840;BME280;15207;42.182;24.308;2023-01-31T11:29:18;98819.91;;;7.54;44.90
27840;BME280;15207;42.182;24.308;2023-01-31T11:31:46;98820.63;;;7.57;44.98
27840;BME280;15207;42.182;24.308;2023-01-31T11:34:24;98831.28;;;7.57;45.72
27840;BME280;15207;42.182;24.308;2023-01-31T11:36:50;98828.00;;;7.53;43.77
27840;BME280;15207;42.182;24.308;2023-01-31T11:39:32;98838.59;;;7.41;44.47
27840;BME280;15207;42.182;24.308;2023-01-31T11:42:18;98835.63;;;7.58;44.43
27840;BME280;15207;42.182;24.308;2023-01-31T11:47:45;98825.59;;;7.86;44.71
27840;BME280;15207;42.182;24.308;2023-01-31T11:50:35;98823.66;;;7.88;44.84
27840;BME280;15207;42.182;24.308;2023-01-31T11:53:45;98824.41;;;7.90;44.38
27840;BME280;15207;42.182;24.308;2023-01-31T11:56:18;98827.69;;;8.05;44.77
27840;BME280;15207;42.182;24.308;2023-01-31T11:58:46;98819.97;;;8.13;43.89
27840;BME280;15207;42.182;24.308;2023-01-31T12:01:19;98813.56;;;8.16;43.74
27840;BME280;15207;42.182;24.308;2023-01-31T12:03:57;98822.53;;;8.15;43.32
27840;BME280;15207;42.182;24.308;2023-01-31T12:06:30;98809.44;;;8.23;43.99
27840;BME280;15207;42.182;24.308;2023-01-31T12:08:58;98829.94;;;8.23;43.63
27840;BME280;15207;42.182;24.308;2023-01-31T12:11:31;98831.38;;;8.15;43.33
27840;BME280;15207;42.182;24.308;2023-01-31T12:14:12;98831.81;;;7.98;43.70
27840;BME280;15207;42.182;24.308;2023-01-31T12:16:38;98836.25;;;7.86;43.92
27840;BME280;15207;42.182;24.308;2023-01-31T12:19:20;98837.84;;;7.88;43.92
27840;BME280;15207;42.182;24.308;2023-01-31T12:22:14;98836.38;;;7.84;44.38
27840;BME280;15207;42.182;24.308;2023-01-31T12:38:48;98853.50;;;7.68;45.30
27840;BME280;15207;42.182;24.308;2023-01-31T12:47:23;98859.81;;;7.43;46.57
27840;BME280;15207;42.182;24.308;2023-01-31T12:55:45;98867.06;;;7.41;45.75
27840;BME280;15207;42.182;24.308;2023-01-31T12:58:40;98868.88;;;7.40;45.90
27840;BME280;15207;42.182;24.308;2023-01-31T13:06:53;98875.50;;;7.59;46.59
27840;BME280;15207;42.182;24.308;2023-01-31T13:09:22;98885.72;;;7.65;46.36
27840;BME280;15207;42.182;24.308;2023-01-31T13:12:14;98888.94;;;7.58;46.40
27840;BME280;15207;42.182;24.308;2023-01-31T13:14:49;98893.44;;;7.57;46.45
27840;BME280;15207;42.182;24.308;2023-01-31T13:17:22;98884.69;;;7.55;47.14
27840;BME280;15207;42.182;24.308;2023-01-31T13:19:57;98885.50;;;7.44;47.22
27840;BME280;15207;42.182;24.308;2023-01-31T13:22:29;98888.56;;;7.38;47.37
27840;BME280;15207;42.182;24.308;2023-01-31T13:25:39;98886.25;;;7.33;48.39
27840;BME280;15207;42.182;24.308;2023-01-31T13:28:18;98883.69;;;7.32;48.64
27840;BME280;15207;42.182;24.308;2023-01-31T13:30:57;98900.47;;;7.21;49.01
27840;BME280;15207;42.182;24.308;2023-01-31T13:36:06;98891.03;;;7.04;50.49
27840;BME280;15207;42.182;24.308;2023-01-31T13:38:37;98889.00;;;6.94;52.02
27840;BME280;15207;42.182;24.308;2023-01-31T13:41:09;98901.34;;;6.95;52.52
27840;BME280;15207;42.182;24.308;2023-01-31T13:43:38;98907.09;;;7.02;52.79
27840;BME280;15207;42.182;24.308;2023-01-31T13:46:07;98913.06;;;7.06;53.02
27840;BME280;15207;42.182;24.308;2023-01-31T13:48:36;98914.03;;;7.05;52.67
27840;BME280;15207;42.182;24.308;2023-01-31T13:54:04;98919.25;;;6.93;54.84
27840;BME280;15207;42.182;24.308;2023-01-31T13:56:33;98918.41;;;6.93;56.03
27840;BME280;15207;42.182;24.308;2023-01-31T13:58:59;98922.63;;;7.08;55.84
27840;BME280;15207;42.182;24.308;2023-01-31T14:01:29;98920.19;;;6.92;56.02
27840;BME280;15207;42.182;24.308;2023-01-31T14:11:56;98930.75;;;6.68;59.03
27840;BME280;15207;42.182;24.308;2023-01-31T14:22:32;98919.22;;;6.41;60.38
27840;BME280;15207;42.182;24.308;2023-01-31T14:25:03;98920.69;;;6.32;60.85
27840;BME280;15207;42.182;24.308;2023-01-31T14:57:26;98964.28;;;5.33;64.05
27840;BME280;15207;42.182;24.308;2023-01-31T15:07:23;98972.34;;;5.16;64.86
27840;BME280;15207;42.182;24.308;2023-01-31T15:09:49;98987.13;;;5.06;65.45
27840;BME280;15207;42.182;24.308;2023-01-31T15:12:52;98996.22;;;5.02;66.50
27840;BME280;15207;42.182;24.308;2023-01-31T15:15:22;99001.34;;;5.05;66.44
27840;BME280;15207;42.182;24.308;2023-01-31T15:17:50;99007.13;;;4.97;66.74
27840;BME280;15207;42.182;24.308;2023-01-31T15:20:28;99012.59;;;4.94;66.70
27840;BME280;15207;42.182;24.308;2023-01-31T15:22:57;99010.66;;;4.98;67.01
27840;BME280;15207;42.182;24.308;2023-01-31T15:25:35;99014.59;;;4.90;66.42
27840;BME280;15207;42.182;24.308;2023-01-31T15:28:04;99027.94;;;4.89;66.20
27840;BME280;15207;42.182;24.308;2023-01-31T15:30:32;99020.94;;;4.88;66.55
27840;BME280;15207;42.182;24.308;2023-01-31T15:33:15;99021.72;;;4.90;66.94
27840;BME280;15207;42.182;24.308;2023-01-31T15:35:45;99011.38;;;5.00;66.47
27840;BME280;15207;42.182;24.308;2023-01-31T15:38:38;99029.56;;;4.92;65.64
27840;BME280;15207;42.182;24.308;2023-01-31T15:43:43;99037.31;;;4.80;66.41
27840;BME280;15207;42.182;24.308;2023-01-31T15:46:29;99038.78;;;4.86;66.74
27840;BME280;15207;42.182;24.308;2023-01-31T15:48:57;99047.28;;;4.76;67.23
27840;BME280;15207;42.182;24.308;2023-01-31T15:51:23;99051.41;;;4.66;67.52
27840;BME280;15207;42.182;24.308;2023-01-31T15:54:02;99063.66;;;4.69;67.44
27840;BME280;15207;42.182;24.308;2023-01-31T15:56:31;99054.44;;;4.60;68.00